createdAt,value
2018-04-29T00:00:07.799Z,58.10
2018-04-29T00:02:38.264Z,57.80
2018-04-29T00:05:09.745Z,57.60
2018-04-29T00:07:40.258Z,57.60
2018-04-29T00:10:11.446Z,57.30
2018-04-29T00:12:42.720Z,56.80
2018-04-29T00:15:14.041Z,56.90
2018-04-29T00:17:44.712Z,57.10
2018-04-29T00:20:15.919Z,57.60
2018-04-29T00:22:46.312Z,57.60
2018-04-29T00:25:17.664Z,57.50
2018-04-29T00:27:48.204Z,57.20
2018-04-29T00:30:18.686Z,56.80
2018-04-29T00:32:50.022Z,57.50
2018-04-29T00:35:21.223Z,57.10
2018-04-29T00:37:52.090Z,57.10
2018-04-29T00:40:23.405Z,57.30
2018-04-29T00:42:53.675Z,57.40
2018-04-29T00:45:24.579Z,57.40
2018-04-29T00:47:55.331Z,57.40
2018-04-29T00:50:26.221Z,57.20
2018-04-29T00:52:57.043Z,57.60
2018-04-29T00:55:29.302Z,58.20
2018-04-29T00:58:00.522Z,58.00
2018-04-29T01:00:31.320Z,58.00
2018-04-29T01:03:01.626Z,58.00
2018-04-29T01:05:32.833Z,57.90
2018-04-29T01:08:04.114Z,60.20
2018-04-29T01:10:36.258Z,59.50
2018-04-29T01:13:07.164Z,59.50
2018-04-29T01:15:38.187Z,59.60
2018-04-29T01:18:09.415Z,59.10
2018-04-29T01:20:39.988Z,58.80
2018-04-29T01:23:11.436Z,58.50
2018-04-29T01:25:42.296Z,58.30
2018-04-29T01:28:13.466Z,58.20
2018-04-29T01:30:44.429Z,57.80
2018-04-29T01:33:15.287Z,57.90
2018-04-29T01:35:46.315Z,58.00
2018-04-29T01:38:16.756Z,58.00
2018-04-29T01:40:48.257Z,58.20
2018-04-29T01:43:19.520Z,58.10
2018-04-29T01:45:50.318Z,58.10
2018-04-29T01:48:20.751Z,57.70
2018-04-29T01:50:52.204Z,57.70
2018-04-29T01:53:23.787Z,57.60
2018-04-29T01:55:54.565Z,57.60
2018-04-29T01:58:24.987Z,57.50
2018-04-29T02:00:56.234Z,58.00
2018-04-29T02:03:26.850Z,58.10
2018-04-29T02:05:57.637Z,58.10
2018-04-29T02:08:28.758Z,57.80
2018-04-29T02:10:59.247Z,57.70
2018-04-29T02:13:29.932Z,57.60
2018-04-29T02:16:00.452Z,57.80
2018-04-29T02:18:31.132Z,57.70
2018-04-29T02:21:01.732Z,57.80
2018-04-29T02:23:34.102Z,58.40
2018-04-29T02:26:05.885Z,58.60
2018-04-29T02:28:36.383Z,58.40
2018-04-29T02:31:06.726Z,58.40
2018-04-29T02:33:37.924Z,58.00
2018-04-29T02:36:08.362Z,58.30
2018-04-29T02:38:39.085Z,58.00
2018-04-29T02:41:09.525Z,57.70
2018-04-29T02:43:40.124Z,58.00
2018-04-29T02:46:11.213Z,57.90
2018-04-29T02:48:43.192Z,57.90
2018-04-29T02:51:14.436Z,57.60
2018-04-29T02:53:46.122Z,57.80
2018-04-29T02:56:16.453Z,57.80
2018-04-29T02:58:46.870Z,57.80
2018-04-29T03:01:17.936Z,57.90
2018-04-29T03:03:48.467Z,57.90
2018-04-29T03:06:19.443Z,57.80
2018-04-29T03:08:50.067Z,57.80
2018-04-29T03:11:20.776Z,58.00
2018-04-29T03:13:51.573Z,59.10
2018-04-29T03:16:22.632Z,58.20
2018-04-29T03:18:52.939Z,57.90
2018-04-29T03:21:23.852Z,58.20
2018-04-29T03:23:56.085Z,60.70
2018-04-29T03:26:27.013Z,60.70
2018-04-29T03:28:57.724Z,61.00
2018-04-29T03:31:28.331Z,60.30
2018-04-29T03:34:00.793Z,60.80
2018-04-29T03:36:31.433Z,60.80
2018-04-29T03:39:02.594Z,60.80
2018-04-29T03:41:33.271Z,60.80
2018-04-29T03:44:03.702Z,60.50
2018-04-29T03:46:34.613Z,60.30
2018-04-29T03:49:05.266Z,59.60
2018-04-29T03:51:35.606Z,59.60
2018-04-29T03:54:06.917Z,59.70
2018-04-29T03:56:38.487Z,58.50
2018-04-29T04:01:20.757Z,59.60
2018-04-29T04:03:56.303Z,58.40
2018-04-29T04:06:27.951Z,58.10
2018-04-29T04:08:59.383Z,59.20
2018-04-29T04:11:30.030Z,58.40
2018-04-29T04:14:02.208Z,59.00
2018-04-29T04:16:34.097Z,59.20
2018-04-29T04:19:04.502Z,59.20
2018-04-29T04:21:35.656Z,60.70
2018-04-29T04:24:06.501Z,60.70
2018-04-29T04:26:37.529Z,61.50
2018-04-29T04:29:09.485Z,61.10
2018-04-29T04:31:40.031Z,61.10
2018-04-29T04:34:10.601Z,60.50
2018-04-29T04:36:40.888Z,60.20
2018-04-29T04:39:11.716Z,58.90
2018-04-29T04:41:42.001Z,58.50
2018-04-29T04:44:12.232Z,57.90
2018-04-29T04:46:43.057Z,57.70
2018-04-29T04:49:13.335Z,57.50
2018-04-29T04:51:43.750Z,57.40
2018-04-29T04:54:14.201Z,57.60
2018-04-29T04:56:44.668Z,58.10
2018-04-29T04:59:15.498Z,58.70
2018-04-29T05:01:45.907Z,59.70
2018-04-29T05:04:16.313Z,60.70
2018-04-29T05:06:47.200Z,61.20
2018-04-29T05:09:18.503Z,63.30
2018-04-29T05:11:48.907Z,63.20
2018-04-29T05:14:20.029Z,63.00
2018-04-29T05:16:51.255Z,61.50
2018-04-29T05:19:21.676Z,61.40
2018-04-29T05:21:51.972Z,61.30
2018-04-29T05:24:22.471Z,62.00
2018-04-29T05:26:54.202Z,61.60
2018-04-29T05:29:25.444Z,61.40
2018-04-29T05:31:56.742Z,60.40
2018-04-29T05:34:27.799Z,59.60
2018-04-29T05:36:58.403Z,59.60
2018-04-29T05:39:29.089Z,59.20
2018-04-29T05:42:00.975Z,58.20
2018-04-29T05:44:31.555Z,58.20
2018-04-29T05:47:02.855Z,56.60
2018-04-29T05:49:34.438Z,55.20
2018-04-29T05:52:06.387Z,55.20
2018-04-29T05:54:36.711Z,55.40
2018-04-29T05:57:07.182Z,55.40
2018-04-29T05:59:38.002Z,55.50
2018-04-29T06:02:08.512Z,55.80
2018-04-29T06:04:38.824Z,56.50
2018-04-29T06:07:09.546Z,57.50
2018-04-29T06:09:40.820Z,58.30
2018-04-29T06:12:11.272Z,58.20
2018-04-29T06:14:41.615Z,58.50
2018-04-29T06:17:11.835Z,58.50
2018-04-29T06:19:43.366Z,58.90
2018-04-29T06:22:13.932Z,58.80
2018-04-29T06:24:44.273Z,59.40
2018-04-29T06:27:15.736Z,59.70
2018-04-29T06:29:46.266Z,59.80
2018-04-29T06:32:16.511Z,59.90
2018-04-29T06:34:46.907Z,60.40
2018-04-29T06:37:18.259Z,60.80
2018-04-29T06:39:49.839Z,60.80
2018-04-29T06:42:20.408Z,61.00
2018-04-29T06:44:50.729Z,62.80
2018-04-29T06:47:21.449Z,63.20
2018-04-29T06:49:51.801Z,64.70
2018-04-29T06:52:22.167Z,63.30
2018-04-29T06:54:52.559Z,62.30
2018-04-29T06:57:23.742Z,61.00
2018-04-29T06:59:54.632Z,61.00
2018-04-29T07:02:25.280Z,60.70
2018-04-29T07:04:56.545Z,62.90
2018-04-29T07:07:27.267Z,62.80
2018-04-29T07:09:58.708Z,65.90
2018-04-29T07:12:30.691Z,65.60
2018-04-29T07:15:01.009Z,65.60
2018-04-29T07:17:32.216Z,63.10
2018-04-29T07:20:03.425Z,63.00
2018-04-29T07:22:33.978Z,62.70
2018-04-29T07:25:05.327Z,63.50
2018-04-29T07:27:36.176Z,61.90
2018-04-29T07:30:06.729Z,62.40
2018-04-29T07:32:37.848Z,63.40
2018-04-29T07:35:08.275Z,63.40
2018-04-29T07:37:38.546Z,65.10
2018-04-29T07:40:09.386Z,64.80
2018-04-29T07:42:40.677Z,65.70
2018-04-29T07:45:11.165Z,65.70
2018-04-29T07:47:41.628Z,65.00
2018-04-29T07:50:12.210Z,65.00
2018-04-29T07:52:43.098Z,64.10
2018-04-29T07:55:14.503Z,63.10
2018-04-29T07:57:45.344Z,63.20
2018-04-29T08:00:16.092Z,60.30
2018-04-29T08:02:46.607Z,58.60
2018-04-29T08:05:17.498Z,57.00
2018-04-29T08:07:48.673Z,56.60
2018-04-29T08:10:20.693Z,55.70
2018-04-29T08:12:51.276Z,55.60
2018-04-29T08:15:22.500Z,54.40
2018-04-29T08:17:53.796Z,54.60
2018-04-29T08:20:24.467Z,54.60
2018-04-29T08:22:55.104Z,54.90
2018-04-29T08:25:25.891Z,55.10
2018-04-29T08:27:56.875Z,55.10
2018-04-29T08:30:28.168Z,56.20
2018-04-29T08:32:58.528Z,56.30
2018-04-29T08:35:29.044Z,56.60
2018-04-29T08:38:00.003Z,57.80
2018-04-29T08:40:30.828Z,58.70
2018-04-29T08:43:01.691Z,59.30
2018-04-29T08:45:32.207Z,60.10
2018-04-29T08:48:02.966Z,60.10
2018-04-29T08:50:35.019Z,61.00
2018-04-29T08:53:05.900Z,61.00
2018-04-29T08:55:36.350Z,60.80
2018-04-29T08:58:06.983Z,61.60
2018-04-29T09:00:39.876Z,61.50
2018-04-29T09:03:10.374Z,60.90
2018-04-29T09:05:40.809Z,59.60
2018-04-29T09:08:11.857Z,59.00
2018-04-29T09:10:42.437Z,58.60
2018-04-29T09:13:13.663Z,58.70
2018-04-29T09:15:44.223Z,58.70
2018-04-29T09:18:15.453Z,60.40
2018-04-29T09:20:46.423Z,60.40
2018-04-29T09:23:16.891Z,60.10
2018-04-29T09:25:49.807Z,59.20
2018-04-29T09:28:21.277Z,57.50
2018-04-29T09:30:52.753Z,56.90
2018-04-29T09:33:23.319Z,56.90
2018-04-29T09:35:54.292Z,56.00
2018-04-29T09:38:25.564Z,56.30
2018-04-29T09:40:56.205Z,56.40
2018-04-29T09:43:26.579Z,55.90
2018-04-29T09:45:57.568Z,56.00
2018-04-29T09:48:28.535Z,54.80
2018-04-29T09:50:59.334Z,54.50
2018-04-29T09:53:30.938Z,54.50
2018-04-29T09:56:01.592Z,54.60
2018-04-29T09:58:32.099Z,54.50
2018-04-29T10:01:04.688Z,54.70
2018-04-29T10:03:35.374Z,54.60
2018-04-29T10:06:06.097Z,54.00
2018-04-29T10:08:37.116Z,54.20
2018-04-29T10:11:08.027Z,54.60
2018-04-29T10:13:39.511Z,55.50
2018-04-29T10:16:11.956Z,55.40
2018-04-29T10:18:43.555Z,54.70
2018-04-29T10:21:14.790Z,54.20
2018-04-29T10:23:46.435Z,53.60
2018-04-29T10:26:17.615Z,53.60
2018-04-29T10:28:49.056Z,53.40
2018-04-29T10:31:19.599Z,53.20
2018-04-29T10:33:52.048Z,52.20
2018-04-29T10:36:23.209Z,52.20
2018-04-29T10:38:54.044Z,52.30
2018-04-29T10:41:24.995Z,51.90
2018-04-29T10:43:56.137Z,52.20
2018-04-29T10:46:27.106Z,52.20
2018-04-29T10:48:58.696Z,52.60
2018-04-29T10:51:29.415Z,52.60
2018-04-29T10:54:01.944Z,52.00
2018-04-29T10:56:32.943Z,51.50
2018-04-29T10:59:04.284Z,51.00
2018-04-29T11:01:35.988Z,52.00
2018-04-29T11:04:06.664Z,52.00
2018-04-29T11:06:38.193Z,54.60
2018-04-29T11:09:09.804Z,54.50
2018-04-29T11:11:40.563Z,55.70
2018-04-29T11:14:12.956Z,54.10
2018-04-29T11:16:45.519Z,51.90
2018-04-29T11:19:16.904Z,51.90
2018-04-29T11:21:48.438Z,51.40
2018-04-29T11:24:19.805Z,51.40
2018-04-29T11:26:52.731Z,51.40
2018-04-29T11:29:23.168Z,51.40
2018-04-29T11:31:54.841Z,51.50
2018-04-29T11:34:26.569Z,51.50
2018-04-29T11:36:57.561Z,51.40
2018-04-29T11:39:28.107Z,52.00
2018-04-29T11:41:59.779Z,51.30
2018-04-29T11:44:30.800Z,51.30
2018-04-29T11:47:02.483Z,51.00
2018-04-29T11:49:33.943Z,50.60
2018-04-29T11:52:05.316Z,50.60
2018-04-29T11:54:36.318Z,51.10
2018-04-29T11:57:07.401Z,50.70
2018-04-29T11:59:40.708Z,50.40
2018-04-29T12:02:12.293Z,50.60
2018-04-29T12:04:44.668Z,50.40
2018-04-29T12:07:16.301Z,50.70
2018-04-29T12:09:47.923Z,50.80
2018-04-29T12:12:19.699Z,50.40
2018-04-29T12:14:50.539Z,51.00
2018-04-29T12:17:21.052Z,51.20
2018-04-29T12:19:52.523Z,51.10
2018-04-29T12:22:23.588Z,50.10
2018-04-29T12:24:55.356Z,50.00
2018-04-29T12:27:25.787Z,50.60
2018-04-29T12:29:56.511Z,51.10
2018-04-29T12:32:27.760Z,52.30
2018-04-29T12:34:59.148Z,52.00
2018-04-29T12:37:30.576Z,52.30
2018-04-29T12:40:02.142Z,52.30
2018-04-29T12:42:33.046Z,52.30
2018-04-29T12:45:04.302Z,51.60
2018-04-29T12:47:35.275Z,51.60
2018-04-29T12:50:06.246Z,51.50
2018-04-29T12:52:37.559Z,51.60
2018-04-29T12:55:10.287Z,51.40
2018-04-29T12:57:42.709Z,51.10
2018-04-29T13:00:15.797Z,50.50
2018-04-29T13:02:49.496Z,50.50
2018-04-29T13:05:22.493Z,50.20
2018-04-29T13:07:53.492Z,49.70
2018-04-29T13:10:26.665Z,49.50
2018-04-29T13:12:58.913Z,48.50
2018-04-29T13:15:35.534Z,48.50
2018-04-29T13:18:09.447Z,48.50
2018-04-29T13:20:44.435Z,49.60
2018-04-29T13:23:17.173Z,48.80
2018-04-29T13:25:51.076Z,47.80
2018-04-29T13:28:22.408Z,47.80
2018-04-29T13:30:54.166Z,48.00
2018-04-29T13:33:25.208Z,48.00
2018-04-29T13:35:58.353Z,48.00
2018-04-29T13:38:31.194Z,48.00
2018-04-29T13:41:03.450Z,48.80
2018-04-29T13:43:36.274Z,52.30
2018-04-29T13:46:11.417Z,52.20
2018-04-29T13:48:44.440Z,51.60
2018-04-29T13:51:17.383Z,50.90
2018-04-29T13:53:49.241Z,51.70
2018-04-29T13:56:20.291Z,50.50
2018-04-29T13:58:52.923Z,49.20
2018-04-29T14:01:26.359Z,47.60
2018-04-29T14:04:14.989Z,46.50
2018-04-29T14:06:47.436Z,47.50
2018-04-29T14:09:22.368Z,48.30
2018-04-29T14:11:53.500Z,48.30
2018-04-29T14:14:25.773Z,46.70
2018-04-29T14:16:57.539Z,46.70
2018-04-29T14:19:29.159Z,47.00
2018-04-29T14:22:00.373Z,47.00
2018-04-29T14:24:31.770Z,46.40
2018-04-29T14:27:03.836Z,47.60
2018-04-29T14:29:35.853Z,47.50
2018-04-29T14:32:06.782Z,47.60
2018-04-29T14:34:38.089Z,47.70
2018-04-29T14:37:11.390Z,47.80
2018-04-29T14:39:43.620Z,48.00
2018-04-29T14:42:15.223Z,48.20
2018-04-29T14:44:46.512Z,48.30
2018-04-29T14:47:17.234Z,48.10
2018-04-29T14:49:48.506Z,48.40
2018-04-29T14:52:19.340Z,48.10
2018-04-29T14:54:50.507Z,47.70
2018-04-29T14:57:21.469Z,47.90
2018-04-29T14:59:52.748Z,47.70
2018-04-29T15:02:24.016Z,47.80
2018-04-29T15:04:54.575Z,47.40
2018-04-29T15:07:26.349Z,48.80
2018-04-29T15:09:56.874Z,48.80
2018-04-29T15:12:28.575Z,49.00
2018-04-29T15:14:59.526Z,48.10
2018-04-29T15:17:31.127Z,49.20
2018-04-29T15:20:04.106Z,49.70
2018-04-29T15:22:34.872Z,49.00
2018-04-29T15:25:06.153Z,48.80
2018-04-29T15:27:37.117Z,48.60
2018-04-29T15:30:08.296Z,48.60
2018-04-29T15:32:39.760Z,48.70
2018-04-29T15:35:10.465Z,48.80
2018-04-29T15:37:41.469Z,47.50
2018-04-29T15:40:13.340Z,47.90
2018-04-29T15:42:44.023Z,48.00
2018-04-29T15:45:14.783Z,48.00
2018-04-29T15:47:46.298Z,47.20
2018-04-29T15:50:18.494Z,47.10
2018-04-29T15:52:48.873Z,47.10
2018-04-29T15:55:19.404Z,49.50
2018-04-29T15:57:49.806Z,51.40
2018-04-29T16:00:20.908Z,52.80
2018-04-29T16:02:51.346Z,53.70
2018-04-29T16:05:23.080Z,54.30
2018-04-29T16:07:55.040Z,54.40
2018-04-29T16:10:25.736Z,54.40
2018-04-29T16:12:56.443Z,53.70
2018-04-29T16:15:28.464Z,53.70
2018-04-29T16:17:59.240Z,53.00
2018-04-29T16:20:30.508Z,54.20
2018-04-29T16:23:00.914Z,54.40
2018-04-29T16:25:35.359Z,54.50
2018-04-29T16:28:07.953Z,54.60
2018-04-29T16:30:39.159Z,54.80
2018-04-29T16:33:10.580Z,54.40
2018-04-29T16:35:44.619Z,54.60
2018-04-29T16:38:16.509Z,54.40
2018-04-29T16:40:50.184Z,54.20
2018-04-29T16:43:21.150Z,54.10
2018-04-29T16:45:51.727Z,53.50
2018-04-29T16:48:23.620Z,53.40
2018-04-29T16:50:55.809Z,53.40
2018-04-29T16:53:27.542Z,54.80
2018-04-29T16:55:59.735Z,54.00
2018-04-29T16:58:31.124Z,53.10
2018-04-29T17:01:03.185Z,53.20
2018-04-29T17:03:35.366Z,52.90
2018-04-29T17:06:07.858Z,52.90
2018-04-29T17:08:38.588Z,53.20
2018-04-29T17:11:11.702Z,53.40
2018-04-29T17:13:44.998Z,53.70
2018-04-29T17:16:16.829Z,53.30
2018-04-29T17:18:49.645Z,53.80
2018-04-29T17:21:20.487Z,54.40
2018-04-29T17:23:51.594Z,54.60
2018-04-29T17:26:25.351Z,54.60
2018-04-29T17:28:56.878Z,54.50
2018-04-29T17:31:27.263Z,54.70
2018-04-29T17:33:58.645Z,54.60
2018-04-29T17:36:31.849Z,55.50
2018-04-29T17:39:03.018Z,55.40
2018-04-29T17:41:34.758Z,56.30
2018-04-29T17:44:05.653Z,56.30
2018-04-29T17:46:36.501Z,55.90
2018-04-29T17:49:08.847Z,57.10
2018-04-29T17:51:41.473Z,58.40
2018-04-29T17:54:13.205Z,58.40
2018-04-29T17:56:44.876Z,58.00
2018-04-29T17:59:15.842Z,58.70
2018-04-29T18:01:48.321Z,59.80
2018-04-29T18:04:19.641Z,60.70
2018-04-29T18:06:50.732Z,61.30
2018-04-29T18:09:22.461Z,61.40
2018-04-29T18:11:57.386Z,62.70
2018-04-29T18:14:27.852Z,62.80
2018-04-29T18:17:00.537Z,63.20
2018-04-29T18:19:33.353Z,62.60
2018-04-29T18:22:04.906Z,62.60
2018-04-29T18:24:35.392Z,61.70
2018-04-29T18:27:06.993Z,61.10
2018-04-29T18:29:37.960Z,61.10
2018-04-29T18:32:10.808Z,61.40
2018-04-29T18:34:45.485Z,61.20
2018-04-29T18:37:17.852Z,61.20
2018-04-29T18:39:51.419Z,61.80
2018-04-29T18:42:25.369Z,61.80
2018-04-29T18:45:00.666Z,62.80
2018-04-29T18:47:33.515Z,63.70
2018-04-29T18:50:06.503Z,66.20
2018-04-29T18:52:43.024Z,65.30
2018-04-29T18:55:14.341Z,65.30
2018-04-29T18:57:44.965Z,64.90
2018-04-29T19:00:15.619Z,66.00
2018-04-29T19:02:47.093Z,67.10
2018-04-29T19:05:17.829Z,66.40
2018-04-29T19:07:49.756Z,67.20
2018-04-29T19:10:21.403Z,67.20
2018-04-29T19:12:51.972Z,66.40
2018-04-29T19:15:23.915Z,66.30
2018-04-29T19:17:59.711Z,66.40
2018-04-29T19:20:31.689Z,66.30
2018-04-29T19:23:05.166Z,66.60
2018-04-29T19:25:40.051Z,67.30
2018-04-29T19:28:15.022Z,67.40
2018-04-29T19:30:46.808Z,67.20
2018-04-29T19:33:18.774Z,67.50
2018-04-29T19:35:49.219Z,67.60
2018-04-29T19:38:25.848Z,68.20
2018-04-29T19:40:58.872Z,68.90
2018-04-29T19:43:29.732Z,68.80
2018-04-29T19:46:03.212Z,69.10
2018-04-29T19:48:34.868Z,69.30
2018-04-29T19:51:08.813Z,70.60
2018-04-29T19:53:39.426Z,71.50
2018-04-29T19:56:10.317Z,71.40
2018-04-29T19:58:41.778Z,70.80
2018-04-29T20:01:12.765Z,70.80
2018-04-29T20:03:44.691Z,70.80
2018-04-29T20:06:16.872Z,70.70
2018-04-29T20:08:48.355Z,69.90
2018-04-29T20:11:19.551Z,69.00
2018-04-29T20:13:52.928Z,69.60
2018-04-29T20:16:26.025Z,70.60
2018-04-29T20:18:59.301Z,70.20
2018-04-29T20:21:30.302Z,71.10
2018-04-29T20:24:02.065Z,70.70
2018-04-29T20:26:35.554Z,70.90
2018-04-29T20:29:08.789Z,70.90
2018-04-29T20:31:39.334Z,70.60
2018-04-29T20:34:10.841Z,70.20
2018-04-29T20:36:41.848Z,70.20
2018-04-29T20:39:12.496Z,69.20
2018-04-29T20:41:43.133Z,69.10
2018-04-29T20:44:14.774Z,69.40
2018-04-29T20:46:45.375Z,69.50
2018-04-29T20:49:17.418Z,70.10
2018-04-29T20:51:48.284Z,70.10
2018-04-29T20:54:20.132Z,70.00
2018-04-29T20:56:51.012Z,70.10
2018-04-29T20:59:22.282Z,70.60
2018-04-29T21:01:53.031Z,70.40
2018-04-29T21:04:25.144Z,70.60
2018-04-29T21:06:57.196Z,71.20
2018-04-29T21:09:28.806Z,70.30
2018-04-29T21:12:00.362Z,70.20
2018-04-29T21:14:30.999Z,70.10
2018-04-29T21:17:01.412Z,70.30
2018-04-29T21:19:32.025Z,69.80
2018-04-29T21:22:03.056Z,69.60
2018-04-29T21:24:33.774Z,70.70
2018-04-29T21:27:04.962Z,70.60
2018-04-29T21:29:38.039Z,70.40
2018-04-29T21:32:08.382Z,70.00
2018-04-29T21:34:40.620Z,69.90
2018-04-29T21:37:11.691Z,69.90
2018-04-29T21:39:42.051Z,69.20
2018-04-29T21:42:13.574Z,72.10
2018-04-29T21:44:43.943Z,73.70
2018-04-29T21:47:16.220Z,74.00
2018-04-29T21:49:47.841Z,74.00
2018-04-29T21:52:18.348Z,74.00
2018-04-29T21:54:48.847Z,86.10
2018-04-29T21:57:19.666Z,86.10
2018-04-29T21:59:50.891Z,90.60
2018-04-29T22:02:22.848Z,90.50
2018-04-29T22:04:53.931Z,92.30
2018-04-29T22:07:25.519Z,92.30
2018-04-29T22:09:56.652Z,92.30
2018-04-29T22:12:27.264Z,91.20
2018-04-29T22:14:59.735Z,88.30
2018-04-29T22:17:30.583Z,86.60
2018-04-29T22:20:01.247Z,84.20
2018-04-29T22:22:32.991Z,82.40
2018-04-29T22:25:04.742Z,82.00
2018-04-29T22:27:35.243Z,82.70
2018-04-29T22:30:06.124Z,81.80
2018-04-29T22:32:36.532Z,84.90
2018-04-29T22:35:07.226Z,86.70
2018-04-29T22:37:39.315Z,95.30
2018-04-29T22:40:09.919Z,95.30
2018-04-29T22:42:41.636Z,99.90
2018-04-29T22:45:12.471Z,99.90
2018-04-29T22:47:42.923Z,99.90
2018-04-29T22:50:13.416Z,99.90
2018-04-29T22:52:45.390Z,99.90
2018-04-29T22:55:15.659Z,99.90
2018-04-29T22:57:47.081Z,99.90
2018-04-29T23:00:17.726Z,99.90
2018-04-29T23:02:48.967Z,99.90
2018-04-29T23:05:19.836Z,96.20
2018-04-29T23:07:50.395Z,97.00
2018-04-29T23:10:20.834Z,96.10
2018-04-29T23:12:51.699Z,92.10
2018-04-29T23:15:22.413Z,95.80
2018-04-29T23:17:52.740Z,95.70
2018-04-29T23:20:23.227Z,94.90
2018-04-29T23:22:53.696Z,95.30
2018-04-29T23:25:24.536Z,94.40
2018-04-29T23:27:54.921Z,92.60
2018-04-29T23:30:25.411Z,91.90
2018-04-29T23:32:57.639Z,92.10
2018-04-29T23:35:28.478Z,92.10
2018-04-29T23:37:59.802Z,90.80
2018-04-29T23:40:30.061Z,88.80
2018-04-29T23:43:00.363Z,91.10
2018-04-29T23:45:31.625Z,91.20
2018-04-29T23:48:02.190Z,90.40
2018-04-29T23:50:33.484Z,90.70
2018-04-29T23:53:05.295Z,90.70
2018-04-29T23:55:36.615Z,89.40
2018-04-29T23:58:07.170Z,89.30
